No particular awareness of the weather is required.    There are no Weather-warnings


Meteo18 Weather Cam more information Meteo18 Weather Cam


Thunder radar more information blitzortung!


Rain radar more information rain snow radar


Visit our other weather sites:

Template documentation
and downloads

And another site



Weather Underground History page Text

Daily Summary for September 7, 2017 Units:  Both    English   Metric
« Previous Day
Next Day »
Daily Weekly Monthly Yearly Custom
  High: Low: Average:
Temperature: TemperatureC °F /  -17.8 °C 12.4 °F /  -10.9 °C 16.1 °F /  -8.8 °C
Dew Point: DewpointC °F /  -17.8 °C 9.7 °F /  -12.4 °C 10.5 °F /  -11.9 °C
Humidity: Humidity % 56 % 69 %
Wind Speed: WindSpeedKMH mph /  0 km/h - 3.9 mph /  6.3 km/h
Wind Gust: WindSpeedGustKMH mph /  0 km/h - -
Wind:- - West
Pressure: PressurehPa in /  0 hPa 1018.2 in /  34476.3 hPa -
Precipitation: 0.0 in /  0 mm    
Historical Graphs
 
 
Tabular Data for September 7, 2017
Time Temperature Dew Point Pressure Wind Wind Speed Wind Gust Humidity Rainfall Rate (Hourly)
TemperatureC °F /  -17.8 °C DewpointC °F /  -17.8 °C PressurehPa in /  0 hPa Calm     Humidity % HourlyPrecipMM in /  0 mm
00:02 16.6 °F /  -8.6 °C 10.2 °F /  -12.1 °C 1023.2 in /  34645.6 hPa West 3.2 mph /  5.1 km/h 11.3 mph /  18.2 km/h 66 % 0.0 in /  0 mm
00:07 16.5 °F /  -8.6 °C 10.1 °F /  -12.2 °C 1023.2 in /  34645.6 hPa NW 3.2 mph /  5.1 km/h 8.0 mph /  12.9 km/h 66 % 0.0 in /  0 mm
00:12 16.5 °F /  -8.6 °C 10.4 °F /  -12 °C 1023.6 in /  34659.1 hPa West 8.0 mph /  12.9 km/h 8.0 mph /  12.9 km/h 67 % 0.0 in /  0 mm
00:17 16.4 °F /  -8.7 °C 10.3 °F /  -12.1 °C 1023.2 in /  34645.6 hPa WNW 1.6 mph /  2.6 km/h 11.3 mph /  18.2 km/h 67 % 0.0 in /  0 mm
00:22 16.4 °F /  -8.7 °C 10.3 °F /  -12.1 °C 1023.6 in /  34659.1 hPa WNW 4.8 mph /  7.7 km/h 11.3 mph /  18.2 km/h 67 % 0.0 in /  0 mm
00:27 16.4 °F /  -8.7 °C 10.3 °F /  -12.1 °C 1023.6 in /  34659.1 hPa NW 4.8 mph /  7.7 km/h 11.3 mph /  18.2 km/h 67 % 0.0 in /  0 mm
00:32 16.4 °F /  -8.7 °C 10.3 °F /  -12.1 °C 1023.6 in /  34659.1 hPa West 8.0 mph /  12.9 km/h 11.3 mph /  18.2 km/h 67 % 0.0 in /  0 mm
00:42 16.4 °F /  -8.7 °C 10.3 °F /  -12.1 °C 1023.6 in /  34659.1 hPa NW 6.4 mph /  10.3 km/h 11.3 mph /  18.2 km/h 67 % 0.0 in /  0 mm
00:47 16.3 °F /  -8.7 °C 10.2 °F /  -12.1 °C 1023.6 in /  34659.1 hPa WNW 6.4 mph /  10.3 km/h 11.3 mph /  18.2 km/h 67 % 0.0 in /  0 mm
00:52 16.3 °F /  -8.7 °C 10.2 °F /  -12.1 °C 1023.6 in /  34659.1 hPa West 4.8 mph /  7.7 km/h 11.3 mph /  18.2 km/h 67 % 0.0 in /  0 mm
00:57 16.3 °F /  -8.7 °C 10.2 °F /  -12.1 °C 1023.6 in /  34659.1 hPa WNW 4.8 mph /  7.7 km/h 9.7 mph /  15.6 km/h 67 % 0.0 in /  0 mm
01:02 16.3 °F /  -8.7 °C 10.2 °F /  -12.1 °C 1023.6 in /  34659.1 hPa NW 3.2 mph /  5.1 km/h 11.3 mph /  18.2 km/h 67 % 0.0 in /  0 mm
01:07 16.3 °F /  -8.7 °C 10.2 °F /  -12.1 °C 1023.6 in /  34659.1 hPa West 4.8 mph /  7.7 km/h 11.3 mph /  18.2 km/h 67 % 0.0 in /  0 mm
01:12 16.3 °F /  -8.7 °C 10.4 °F /  -12 °C 1023.6 in /  34659.1 hPa WNW 6.4 mph /  10.3 km/h 12.9 mph /  20.8 km/h 68 % 0.0 in /  0 mm
01:17 16.3 °F /  -8.7 °C 10.4 °F /  -12 °C 1023.2 in /  34645.6 hPa West 12.9 mph /  20.8 km/h 16.1 mph /  25.9 km/h 68 % 0.0 in /  0 mm
01:22 16.2 °F /  -8.8 °C 10.3 °F /  -12.1 °C 1023.2 in /  34645.6 hPa WNW 6.4 mph /  10.3 km/h 16.1 mph /  25.9 km/h 68 % 0.0 in /  0 mm
01:27 16.2 °F /  -8.8 °C 10.3 °F /  -12.1 °C 1023.2 in /  34645.6 hPa WNW 4.8 mph /  7.7 km/h 16.1 mph /  25.9 km/h 68 % 0.0 in /  0 mm
01:32 16.2 °F /  -8.8 °C 10.3 °F /  -12.1 °C 1023.2 in /  34645.6 hPa West 4.8 mph /  7.7 km/h 14.5 mph /  23.3 km/h 68 % 0.0 in /  0 mm
01:37 16.1 °F /  -8.8 °C 10.2 °F /  -12.1 °C 1023.2 in /  34645.6 hPa West 6.4 mph /  10.3 km/h 12.9 mph /  20.8 km/h 68 % 0.0 in /  0 mm
01:42 16.0 °F /  -8.9 °C 10.1 °F /  -12.2 °C 1023.2 in /  34645.6 hPa NW 6.4 mph /  10.3 km/h 9.7 mph /  15.6 km/h 68 % 0.0 in /  0 mm
01:47 16.0 °F /  -8.9 °C 10.3 °F /  -12.1 °C 1023.2 in /  34645.6 hPa WNW 6.4 mph /  10.3 km/h 11.3 mph /  18.2 km/h 69 % 0.0 in /  0 mm
01:52 16.0 °F /  -8.9 °C 10.1 °F /  -12.2 °C 1023.2 in /  34645.6 hPa WNW 8.0 mph /  12.9 km/h 14.5 mph /  23.3 km/h 68 % 0.0 in /  0 mm
01:57 15.8 °F /  -9 °C 10.1 °F /  -12.2 °C 1023.2 in /  34645.6 hPa NW 4.8 mph /  7.7 km/h 14.5 mph /  23.3 km/h 69 % 0.0 in /  0 mm
02:02 15.7 °F /  -9.1 °C 10.2 °F /  -12.1 °C 1023.2 in /  34645.6 hPa WNW 6.4 mph /  10.3 km/h 14.5 mph /  23.3 km/h 70 % 0.0 in /  0 mm
02:12 15.6 °F /  -9.1 °C 10.1 °F /  -12.2 °C 1023.2 in /  34645.6 hPa WNW 8.0 mph /  12.9 km/h 11.3 mph /  18.2 km/h 70 % 0.0 in /  0 mm
02:17 15.5 °F /  -9.2 °C 10.1 °F /  -12.2 °C 1023.2 in /  34645.6 hPa WNW 3.2 mph /  5.1 km/h 11.3 mph /  18.2 km/h 70 % 0.0 in /  0 mm
02:22 15.5 °F /  -9.2 °C 10.3 °F /  -12.1 °C 1022.9 in /  34635.4 hPa WNW 1.6 mph /  2.6 km/h 11.3 mph /  18.2 km/h 71 % 0.0 in /  0 mm
02:27 15.5 °F /  -9.2 °C 10.3 °F /  -12.1 °C 1022.9 in /  34635.4 hPa WNW 6.4 mph /  10.3 km/h 8.0 mph /  12.9 km/h 71 % 0.0 in /  0 mm
02:32 15.4 °F /  -9.2 °C 10.2 °F /  -12.1 °C 1022.9 in /  34635.4 hPa WNW 1.6 mph /  2.6 km/h 9.7 mph /  15.6 km/h 71 % 0.0 in /  0 mm
02:37 15.3 °F /  -9.3 °C 10.1 °F /  -12.2 °C 1022.9 in /  34635.4 hPa NW 3.2 mph /  5.1 km/h 9.7 mph /  15.6 km/h 71 % 0.0 in /  0 mm
02:42 15.3 °F /  -9.3 °C 10.1 °F /  -12.2 °C 1022.9 in /  34635.4 hPa WNW 4.8 mph /  7.7 km/h 9.7 mph /  15.6 km/h 71 % 0.0 in /  0 mm
02:52 15.3 °F /  -9.3 °C 10.3 °F /  -12.1 °C 1022.6 in /  34625.2 hPa West 1.6 mph /  2.6 km/h 8.0 mph /  12.9 km/h 72 % 0.0 in /  0 mm
02:57 15.3 °F /  -9.3 °C 10.3 °F /  -12.1 °C 1022.6 in /  34625.2 hPa Calm   6.4 mph /  10.3 km/h 72 % 0.0 in /  0 mm
03:02 15.2 °F /  -9.3 °C 10.2 °F /  -12.1 °C 1022.6 in /  34625.2 hPa WNW 1.6 mph /  2.6 km/h 6.4 mph /  10.3 km/h 72 % 0.0 in /  0 mm
03:07 15.2 °F /  -9.3 °C 10.2 °F /  -12.1 °C 1022.6 in /  34625.2 hPa Calm   6.4 mph /  10.3 km/h 72 % 0.0 in /  0 mm
03:12 15.2 °F /  -9.3 °C 10.2 °F /  -12.1 °C 1022.6 in /  34625.2 hPa WNW 1.6 mph /  2.6 km/h 6.4 mph /  10.3 km/h 72 % 0.0 in /  0 mm
03:17 15.1 °F /  -9.4 °C 10.3 °F /  -12.1 °C 1022.6 in /  34625.2 hPa WNW 3.2 mph /  5.1 km/h 6.4 mph /  10.3 km/h 73 % 0.0 in /  0 mm
03:22 15.1 °F /  -9.4 °C 10.3 °F /  -12.1 °C 1022.6 in /  34625.2 hPa Calm   4.8 mph /  7.7 km/h 73 % 0.0 in /  0 mm
03:27 15.1 °F /  -9.4 °C 10.3 °F /  -12.1 °C 1022.2 in /  34611.7 hPa WNW 1.6 mph /  2.6 km/h 4.8 mph /  7.7 km/h 73 % 0.0 in /  0 mm
03:32 15.0 °F /  -9.4 °C 10.2 °F /  -12.1 °C 1022.2 in /  34611.7 hPa West 3.2 mph /  5.1 km/h 4.8 mph /  7.7 km/h 73 % 0.0 in /  0 mm
03:37 15.0 °F /  -9.4 °C 10.2 °F /  -12.1 °C 1022.2 in /  34611.7 hPa WNW 1.6 mph /  2.6 km/h 4.8 mph /  7.7 km/h 73 % 0.0 in /  0 mm
03:42 14.9 °F /  -9.5 °C 10.1 °F /  -12.2 °C 1022.2 in /  34611.7 hPa Calm   4.8 mph /  7.7 km/h 73 % 0.0 in /  0 mm
03:52 14.9 °F /  -9.5 °C 10.3 °F /  -12.1 °C 1022.2 in /  34611.7 hPa Calm   4.8 mph /  7.7 km/h 74 % 0.0 in /  0 mm
04:02 14.9 °F /  -9.5 °C 10.3 °F /  -12.1 °C 1022.2 in /  34611.7 hPa WNW 6.4 mph /  10.3 km/h 6.4 mph /  10.3 km/h 74 % 0.0 in /  0 mm
04:07 14.9 °F /  -9.5 °C 10.3 °F /  -12.1 °C 1022.2 in /  34611.7 hPa WNW 3.2 mph /  5.1 km/h 6.4 mph /  10.3 km/h 74 % 0.0 in /  0 mm
04:12 14.8 °F /  -9.6 °C 10.2 °F /  -12.1 °C 1022.2 in /  34611.7 hPa Calm   6.4 mph /  10.3 km/h 74 % 0.0 in /  0 mm
04:17 14.8 °F /  -9.6 °C 10.4 °F /  -12 °C 1021.9 in /  34601.5 hPa WNW 1.6 mph /  2.6 km/h 6.4 mph /  10.3 km/h 75 % 0.0 in /  0 mm
04:22 14.7 °F /  -9.6 °C 10.3 °F /  -12.1 °C 1021.9 in /  34601.5 hPa WNW 1.6 mph /  2.6 km/h 4.8 mph /  7.7 km/h 75 % 0.0 in /  0 mm
04:27 14.6 °F /  -9.7 °C 10.2 °F /  -12.1 °C 1021.9 in /  34601.5 hPa NW 1.6 mph /  2.6 km/h 4.8 mph /  7.7 km/h 75 % 0.0 in /  0 mm
04:32 14.5 °F /  -9.7 °C 10.3 °F /  -12.1 °C 1021.9 in /  34601.5 hPa WNW 1.6 mph /  2.6 km/h 4.8 mph /  7.7 km/h 76 % 0.0 in /  0 mm
04:37 14.4 °F /  -9.8 °C 10.2 °F /  -12.1 °C 1022.2 in /  34611.7 hPa Calm   6.4 mph /  10.3 km/h 76 % 0.0 in /  0 mm
04:42 14.3 °F /  -9.8 °C 10.3 °F /  -12.1 °C 1021.9 in /  34601.5 hPa Calm   6.4 mph /  10.3 km/h 77 % 0.0 in /  0 mm
04:47 14.3 °F /  -9.8 °C 10.3 °F /  -12.1 °C 1021.9 in /  34601.5 hPa NNW 1.6 mph /  2.6 km/h 6.4 mph /  10.3 km/h 77 % 0.0 in /  0 mm
04:52 14.2 °F /  -9.9 °C 10.2 °F /  -12.1 °C 1021.9 in /  34601.5 hPa NW 3.2 mph /  5.1 km/h 6.4 mph /  10.3 km/h 77 % 0.0 in /  0 mm
04:57 14.2 °F /  -9.9 °C 10.2 °F /  -12.1 °C 1021.9 in /  34601.5 hPa NNW 6.4 mph /  10.3 km/h 6.4 mph /  10.3 km/h 77 % 0.0 in /  0 mm
05:02 14.1 °F /  -9.9 °C 10.3 °F /  -12.1 °C 1021.9 in /  34601.5 hPa NW 1.6 mph /  2.6 km/h 6.4 mph /  10.3 km/h 78 % 0.0 in /  0 mm
05:07 13.9 °F /  -10.1 °C 10.1 °F /  -12.2 °C 1021.9 in /  34601.5 hPa NW 1.6 mph /  2.6 km/h 6.4 mph /  10.3 km/h 78 % 0.0 in /  0 mm
05:13 13.8 °F /  -10.1 °C 10.2 °F /  -12.1 °C 1021.6 in /  34591.4 hPa NNW 1.6 mph /  2.6 km/h 6.4 mph /  10.3 km/h 79 % 0.0 in /  0 mm
05:22 13.8 °F /  -10.1 °C 10.2 °F /  -12.1 °C 1021.6 in /  34591.4 hPa Calm   4.8 mph /  7.7 km/h 79 % 0.0 in /  0 mm
05:27 13.7 °F /  -10.2 °C 10.1 °F /  -12.2 °C 1021.6 in /  34591.4 hPa Calm   4.8 mph /  7.7 km/h 79 % 0.0 in /  0 mm
05:32 13.7 °F /  -10.2 °C 10.1 °F /  -12.2 °C 1021.6 in /  34591.4 hPa Calm   6.4 mph /  10.3 km/h 79 % 0.0 in /  0 mm
05:37 13.7 °F /  -10.2 °C 10.3 °F /  -12.1 °C 1021.6 in /  34591.4 hPa Calm   6.4 mph /  10.3 km/h 80 % 0.0 in /  0 mm
05:42 13.6 °F /  -10.2 °C 10.2 °F /  -12.1 °C 1021.6 in /  34591.4 hPa WNW 4.8 mph /  7.7 km/h 6.4 mph /  10.3 km/h 80 % 0.0 in /  0 mm
05:47 13.4 °F /  -10.3 °C 10.0 °F /  -12.2 °C 1021.6 in /  34591.4 hPa Calm   4.8 mph /  7.7 km/h 80 % 0.0 in /  0 mm
05:52 13.4 °F /  -10.3 °C 10.2 °F /  -12.1 °C 1021.6 in /  34591.4 hPa NW 1.6 mph /  2.6 km/h 4.8 mph /  7.7 km/h 81 % 0.0 in /  0 mm
05:57 13.2 °F /  -10.4 °C 10.0 °F /  -12.2 °C 1021.6 in /  34591.4 hPa WNW 1.6 mph /  2.6 km/h 4.8 mph /  7.7 km/h 81 % 0.0 in /  0 mm
06:02 13.1 °F /  -10.5 °C 10.1 °F /  -12.2 °C 1021.6 in /  34591.4 hPa Calm   3.2 mph /  5.1 km/h 82 % 0.0 in /  0 mm
06:12 12.8 °F /  -10.7 °C 10.0 °F /  -12.2 °C 1021.6 in /  34591.4 hPa Calm   3.2 mph /  5.1 km/h 83 % 0.0 in /  0 mm
06:17 12.8 °F /  -10.7 °C 10.0 °F /  -12.2 °C 1021.6 in /  34591.4 hPa WNW 1.6 mph /  2.6 km/h 3.2 mph /  5.1 km/h 83 % 0.0 in /  0 mm
06:22 12.8 °F /  -10.7 °C 10.0 °F /  -12.2 °C 1021.6 in /  34591.4 hPa Calm   3.2 mph /  5.1 km/h 83 % 0.0 in /  0 mm
06:27 12.8 °F /  -10.7 °C 10.0 °F /  -12.2 °C 1021.6 in /  34591.4 hPa WNW 1.6 mph /  2.6 km/h 3.2 mph /  5.1 km/h 83 % 0.0 in /  0 mm
06:32 12.7 °F /  -10.7 °C 10.1 °F /  -12.2 °C 1021.6 in /  34591.4 hPa Calm   3.2 mph /  5.1 km/h 84 % 0.0 in /  0 mm
06:37 12.6 °F /  -10.8 °C 10.0 °F /  -12.2 °C 1021.6 in /  34591.4 hPa Calm   3.2 mph /  5.1 km/h 84 % 0.0 in /  0 mm
06:42 12.7 °F /  -10.7 °C 10.1 °F /  -12.2 °C 1021.6 in /  34591.4 hPa WNW 1.6 mph /  2.6 km/h 3.2 mph /  5.1 km/h 84 % 0.0 in /  0 mm
06:52 12.7 °F /  -10.7 °C 10.1 °F /  -12.2 °C 1021.6 in /  34591.4 hPa WNW 1.6 mph /  2.6 km/h 4.8 mph /  7.7 km/h 84 % 0.0 in /  0 mm
06:57 12.7 °F /  -10.7 °C 10.1 °F /  -12.2 °C 1021.6 in /  34591.4 hPa Calm   4.8 mph /  7.7 km/h 84 % 0.0 in /  0 mm
07:02 12.6 °F /  -10.8 °C 10.1 °F /  -12.2 °C 1021.6 in /  34591.4 hPa WNW 1.6 mph /  2.6 km/h 4.8 mph /  7.7 km/h 85 % 0.0 in /  0 mm
07:07 12.6 °F /  -10.8 °C 10.1 °F /  -12.2 °C 1021.6 in /  34591.4 hPa Calm   4.8 mph /  7.7 km/h 85 % 0.0 in /  0 mm
07:12 12.4 °F /  -10.9 °C 9.9 °F /  -12.3 °C 1021.6 in /  34591.4 hPa West 1.6 mph /  2.6 km/h 1.6 mph /  2.6 km/h 85 % 0.0 in /  0 mm
07:17 12.5 °F /  -10.8 °C 10.0 °F /  -12.2 °C 1021.6 in /  34591.4 hPa Calm   1.6 mph /  2.6 km/h 85 % 0.0 in /  0 mm
07:22 12.4 °F /  -10.9 °C 9.9 °F /  -12.3 °C 1021.6 in /  34591.4 hPa Calm   1.6 mph /  2.6 km/h 85 % 0.0 in /  0 mm
07:32 12.4 °F /  -10.9 °C 10.1 °F /  -12.2 °C 1021.6 in /  34591.4 hPa Calm     86 % 0.0 in /  0 mm
07:37 12.4 °F /  -10.9 °C 10.1 °F /  -12.2 °C 1021.6 in /  34591.4 hPa Calm     86 % 0.0 in /  0 mm
07:42 12.4 °F /  -10.9 °C 10.1 °F /  -12.2 °C 1021.6 in /  34591.4 hPa Calm     86 % 0.0 in /  0 mm
07:47 12.4 °F /  -10.9 °C 10.1 °F /  -12.2 °C 1021.9 in /  34601.5 hPa Calm     86 % 0.0 in /  0 mm
07:52 12.4 °F /  -10.9 °C 10.1 °F /  -12.2 °C 1021.9 in /  34601.5 hPa Calm     86 % 0.0 in /  0 mm
07:57 12.5 °F /  -10.8 °C 10.2 °F /  -12.1 °C 1021.9 in /  34601.5 hPa Calm     86 % 0.0 in /  0 mm
08:02 12.6 °F /  -10.8 °C 10.3 °F /  -12.1 °C 1021.9 in /  34601.5 hPa Calm     86 % 0.0 in /  0 mm
08:07 12.6 °F /  -10.8 °C 10.3 °F /  -12.1 °C 1021.9 in /  34601.5 hPa Calm   1.6 mph /  2.6 km/h 86 % 0.0 in /  0 mm
08:12 12.7 °F /  -10.7 °C 10.4 °F /  -12 °C 1021.9 in /  34601.5 hPa Calm   1.6 mph /  2.6 km/h 86 % 0.0 in /  0 mm
08:17 12.7 °F /  -10.7 °C 10.4 °F /  -12 °C 1021.9 in /  34601.5 hPa Calm   1.6 mph /  2.6 km/h 86 % 0.0 in /  0 mm
08:22 12.8 °F /  -10.7 °C 10.5 °F /  -11.9 °C 1021.9 in /  34601.5 hPa Calm   1.6 mph /  2.6 km/h 86 % 0.0 in /  0 mm
08:27 12.9 °F /  -10.6 °C 10.4 °F /  -12 °C 1021.9 in /  34601.5 hPa Calm   1.6 mph /  2.6 km/h 85 % 0.0 in /  0 mm
08:32 13.1 °F /  -10.5 °C 10.6 °F /  -11.9 °C 1021.9 in /  34601.5 hPa Calm   1.6 mph /  2.6 km/h 85 % 0.0 in /  0 mm
08:37 13.2 °F /  -10.4 °C 10.7 °F /  -11.8 °C 1021.9 in /  34601.5 hPa Calm   1.6 mph /  2.6 km/h 85 % 0.0 in /  0 mm
08:42 13.3 °F /  -10.4 °C 10.7 °F /  -11.8 °C 1021.9 in /  34601.5 hPa Calm   1.6 mph /  2.6 km/h 84 % 0.0 in /  0 mm
08:47 13.3 °F /  -10.4 °C 10.5 °F /  -11.9 °C 1021.9 in /  34601.5 hPa West 1.6 mph /  2.6 km/h 1.6 mph /  2.6 km/h 83 % 0.0 in /  0 mm
08:57 13.4 °F /  -10.3 °C 10.6 °F /  -11.9 °C 1021.9 in /  34601.5 hPa WNW 3.2 mph /  5.1 km/h 3.2 mph /  5.1 km/h 83 % 0.0 in /  0 mm
09:02 13.5 °F /  -10.3 °C 10.7 °F /  -11.8 °C 1021.9 in /  34601.5 hPa Calm   3.2 mph /  5.1 km/h 83 % 0.0 in /  0 mm
09:07 13.6 °F /  -10.2 °C 10.8 °F /  -11.8 °C 1021.9 in /  34601.5 hPa Calm   3.2 mph /  5.1 km/h 83 % 0.0 in /  0 mm
09:12 13.7 °F /  -10.2 °C 10.9 °F /  -11.7 °C 1021.9 in /  34601.5 hPa Calm   3.2 mph /  5.1 km/h 83 % 0.0 in /  0 mm
09:17 13.8 °F /  -10.1 °C 10.8 °F /  -11.8 °C 1021.9 in /  34601.5 hPa Calm   1.6 mph /  2.6 km/h 82 % 0.0 in /  0 mm
09:27 14.0 °F /  -10 °C 11.0 °F /  -11.7 °C 1021.9 in /  34601.5 hPa NW 1.6 mph /  2.6 km/h 3.2 mph /  5.1 km/h 82 % 0.0 in /  0 mm
09:32 14.1 °F /  -9.9 °C 10.9 °F /  -11.7 °C 1021.9 in /  34601.5 hPa WNW 1.6 mph /  2.6 km/h 3.2 mph /  5.1 km/h 81 % 0.0 in /  0 mm
09:42 14.3 °F /  -9.8 °C 11.1 °F /  -11.6 °C 1021.9 in /  34601.5 hPa Calm   3.2 mph /  5.1 km/h 81 % 0.0 in /  0 mm
09:47 14.5 °F /  -9.7 °C 11.1 °F /  -11.6 °C 1021.9 in /  34601.5 hPa Calm   3.2 mph /  5.1 km/h 80 % 0.0 in /  0 mm
09:52 14.6 °F /  -9.7 °C 11.0 °F /  -11.7 °C 1021.9 in /  34601.5 hPa Calm   3.2 mph /  5.1 km/h 79 % 0.0 in /  0 mm
09:57 14.8 °F /  -9.6 °C 11.0 °F /  -11.7 °C 1021.9 in /  34601.5 hPa NW 1.6 mph /  2.6 km/h 3.2 mph /  5.1 km/h 78 % 0.0 in /  0 mm
10:02 14.9 °F /  -9.5 °C 10.9 °F /  -11.7 °C 1021.9 in /  34601.5 hPa WSW 4.8 mph /  7.7 km/h 8.0 mph /  12.9 km/h 77 % 0.0 in /  0 mm
10:07 15.1 °F /  -9.4 °C 10.7 °F /  -11.8 °C 1021.9 in /  34601.5 hPa NW 1.6 mph /  2.6 km/h 9.7 mph /  15.6 km/h 75 % 0.0 in /  0 mm
10:12 15.1 °F /  -9.4 °C 10.5 °F /  -11.9 °C 1021.9 in /  34601.5 hPa WNW 3.2 mph /  5.1 km/h 9.7 mph /  15.6 km/h 74 % 0.0 in /  0 mm
10:17 15.2 °F /  -9.3 °C 10.8 °F /  -11.8 °C 1021.9 in /  34601.5 hPa NNW 1.6 mph /  2.6 km/h 9.7 mph /  15.6 km/h 75 % 0.0 in /  0 mm
10:22 15.3 °F /  -9.3 °C 10.5 °F /  -11.9 °C 1021.9 in /  34601.5 hPa WNW 6.4 mph /  10.3 km/h 9.7 mph /  15.6 km/h 73 % 0.0 in /  0 mm
10:32 15.3 °F /  -9.3 °C 10.7 °F /  -11.8 °C 1021.9 in /  34601.5 hPa WNW 3.2 mph /  5.1 km/h 11.3 mph /  18.2 km/h 74 % 0.0 in /  0 mm
10:37 15.4 °F /  -9.2 °C 10.8 °F /  -11.8 °C 1021.9 in /  34601.5 hPa WNW 1.6 mph /  2.6 km/h 11.3 mph /  18.2 km/h 74 % 0.0 in /  0 mm
10:42 15.6 °F /  -9.1 °C 11.0 °F /  -11.7 °C 1021.9 in /  34601.5 hPa NW 1.6 mph /  2.6 km/h 8.0 mph /  12.9 km/h 74 % 0.0 in /  0 mm
10:47 15.6 °F /  -9.1 °C 11.0 °F /  -11.7 °C 1021.9 in /  34601.5 hPa Calm   4.8 mph /  7.7 km/h 74 % 0.0 in /  0 mm
10:52 15.7 °F /  -9.1 °C 10.9 °F /  -11.7 °C 1021.9 in /  34601.5 hPa WSW 4.8 mph /  7.7 km/h 4.8 mph /  7.7 km/h 73 % 0.0 in /  0 mm
10:57 15.8 °F /  -9 °C 11.0 °F /  -11.7 °C 1021.9 in /  34601.5 hPa WSW 6.4 mph /  10.3 km/h 8.0 mph /  12.9 km/h 73 % 0.0 in /  0 mm
11:02 16.2 °F /  -8.8 °C 11.4 °F /  -11.4 °C 1021.9 in /  34601.5 hPa West 4.8 mph /  7.7 km/h 9.7 mph /  15.6 km/h 73 % 0.0 in /  0 mm
11:07 16.3 °F /  -8.7 °C 11.2 °F /  -11.6 °C 1021.9 in /  34601.5 hPa Calm   9.7 mph /  15.6 km/h 72 % 0.0 in /  0 mm
11:12 16.5 °F /  -8.6 °C 11.0 °F /  -11.7 °C 1021.9 in /  34601.5 hPa WSW 1.6 mph /  2.6 km/h 9.7 mph /  15.6 km/h 70 % 0.0 in /  0 mm
11:17 16.7 °F /  -8.5 °C 11.0 °F /  -11.7 °C 1021.9 in /  34601.5 hPa West 6.4 mph /  10.3 km/h 9.7 mph /  15.6 km/h 69 % 0.0 in /  0 mm
11:22 16.6 °F /  -8.6 °C 10.7 °F /  -11.8 °C 1021.6 in /  34591.4 hPa SW 8.0 mph /  12.9 km/h 11.3 mph /  18.2 km/h 68 % 0.0 in /  0 mm
11:27 16.6 °F /  -8.6 °C 10.9 °F /  -11.7 °C 1021.6 in /  34591.4 hPa WSW 11.3 mph /  18.2 km/h 14.5 mph /  23.3 km/h 69 % 0.0 in /  0 mm
11:32 16.6 °F /  -8.6 °C 10.9 °F /  -11.7 °C 1021.6 in /  34591.4 hPa West 3.2 mph /  5.1 km/h 14.5 mph /  23.3 km/h 69 % 0.0 in /  0 mm
11:42 16.7 °F /  -8.5 °C 11.0 °F /  -11.7 °C 1021.6 in /  34591.4 hPa WNW 4.8 mph /  7.7 km/h 12.9 mph /  20.8 km/h 69 % 0.0 in /  0 mm
11:52 16.9 °F /  -8.4 °C 11.0 °F /  -11.7 °C 1021.6 in /  34591.4 hPa West 8.0 mph /  12.9 km/h 16.1 mph /  25.9 km/h 68 % 0.0 in /  0 mm
11:57 16.8 °F /  -8.4 °C 10.9 °F /  -11.7 °C 1021.6 in /  34591.4 hPa West 9.7 mph /  15.6 km/h 16.1 mph /  25.9 km/h 68 % 0.0 in /  0 mm
12:02 16.9 °F /  -8.4 °C 11.2 °F /  -11.6 °C 1021.6 in /  34591.4 hPa WSW 3.2 mph /  5.1 km/h 12.9 mph /  20.8 km/h 69 % 0.0 in /  0 mm
12:07 17.3 °F /  -8.2 °C 11.1 °F /  -11.6 °C 1021.6 in /  34591.4 hPa West 6.4 mph /  10.3 km/h 12.9 mph /  20.8 km/h 67 % 0.0 in /  0 mm
12:12 17.1 °F /  -8.3 °C 10.9 °F /  -11.7 °C 1021.6 in /  34591.4 hPa West 8.0 mph /  12.9 km/h 14.5 mph /  23.3 km/h 67 % 0.0 in /  0 mm
12:17 17.3 °F /  -8.2 °C 11.3 °F /  -11.5 °C 1021.6 in /  34591.4 hPa West 8.0 mph /  12.9 km/h 16.1 mph /  25.9 km/h 68 % 0.0 in /  0 mm
12:22 17.4 °F /  -8.1 °C 10.8 °F /  -11.8 °C 1021.6 in /  34591.4 hPa North 4.8 mph /  7.7 km/h 16.1 mph /  25.9 km/h 65 % 0.0 in /  0 mm
12:32 17.4 °F /  -8.1 °C 11.0 °F /  -11.7 °C 1021.2 in /  34577.8 hPa West 8.0 mph /  12.9 km/h 14.5 mph /  23.3 km/h 66 % 0.0 in /  0 mm
12:37 17.5 °F /  -8.1 °C 11.1 °F /  -11.6 °C 1021.2 in /  34577.8 hPa WSW 8.0 mph /  12.9 km/h 14.5 mph /  23.3 km/h 66 % 0.0 in /  0 mm
12:42 17.7 °F /  -7.9 °C 10.8 °F /  -11.8 °C 1021.2 in /  34577.8 hPa West 6.4 mph /  10.3 km/h 14.5 mph /  23.3 km/h 64 % 0.0 in /  0 mm
12:47 17.5 °F /  -8.1 °C 10.6 °F /  -11.9 °C 1021.2 in /  34577.8 hPa West 12.9 mph /  20.8 km/h 14.5 mph /  23.3 km/h 64 % 0.0 in /  0 mm
12:52 17.3 °F /  -8.2 °C 10.7 °F /  -11.8 °C 1020.9 in /  34567.7 hPa WNW 1.6 mph /  2.6 km/h 16.1 mph /  25.9 km/h 65 % 0.0 in /  0 mm
12:57 17.3 °F /  -8.2 °C 10.9 °F /  -11.7 °C 1021.2 in /  34577.8 hPa West 12.9 mph /  20.8 km/h 16.1 mph /  25.9 km/h 66 % 0.0 in /  0 mm
13:02 17.1 °F /  -8.3 °C 10.9 °F /  -11.7 °C 1021.2 in /  34577.8 hPa WSW 9.7 mph /  15.6 km/h 17.7 mph /  28.5 km/h 67 % 0.0 in /  0 mm
13:07 17.1 °F /  -8.3 °C 10.7 °F /  -11.8 °C 1020.9 in /  34567.7 hPa West 12.9 mph /  20.8 km/h 17.7 mph /  28.5 km/h 66 % 0.0 in /  0 mm
13:12 17.1 °F /  -8.3 °C 10.7 °F /  -11.8 °C 1020.9 in /  34567.7 hPa West 9.7 mph /  15.6 km/h 17.7 mph /  28.5 km/h 66 % 0.0 in /  0 mm
13:17 17.1 °F /  -8.3 °C 11.1 °F /  -11.6 °C 1020.9 in /  34567.7 hPa WSW 8.0 mph /  12.9 km/h 19.3 mph /  31.1 km/h 68 % 0.0 in /  0 mm
13:22 17.1 °F /  -8.3 °C 10.9 °F /  -11.7 °C 1020.9 in /  34567.7 hPa WNW 4.8 mph /  7.7 km/h 19.3 mph /  31.1 km/h 67 % 0.0 in /  0 mm
13:32 17.2 °F /  -8.2 °C 11.0 °F /  -11.7 °C 1020.9 in /  34567.7 hPa WSW 1.6 mph /  2.6 km/h 17.7 mph /  28.5 km/h 67 % 0.0 in /  0 mm
13:37 17.3 °F /  -8.2 °C 10.9 °F /  -11.7 °C 1020.5 in /  34554.1 hPa WSW 6.4 mph /  10.3 km/h 17.7 mph /  28.5 km/h 66 % 0.0 in /  0 mm
13:42 17.3 °F /  -8.2 °C 11.1 °F /  -11.6 °C 1020.5 in /  34554.1 hPa WSW 6.4 mph /  10.3 km/h 17.7 mph /  28.5 km/h 67 % 0.0 in /  0 mm
13:47 17.3 °F /  -8.2 °C 11.3 °F /  -11.5 °C 1020.5 in /  34554.1 hPa West 6.4 mph /  10.3 km/h 17.7 mph /  28.5 km/h 68 % 0.0 in /  0 mm
13:52 17.3 °F /  -8.2 °C 11.1 °F /  -11.6 °C 1020.5 in /  34554.1 hPa WNW 9.7 mph /  15.6 km/h 17.7 mph /  28.5 km/h 67 % 0.0 in /  0 mm
13:57 17.1 °F /  -8.3 °C 11.1 °F /  -11.6 °C 1020.5 in /  34554.1 hPa WNW 9.7 mph /  15.6 km/h 17.7 mph /  28.5 km/h 68 % 0.0 in /  0 mm
14:02 17.0 °F /  -8.3 °C 11.3 °F /  -11.5 °C 1020.5 in /  34554.1 hPa WSW 4.8 mph /  7.7 km/h 20.9 mph /  33.6 km/h 69 % 0.0 in /  0 mm
14:07 16.9 °F /  -8.4 °C 11.2 °F /  -11.6 °C 1020.5 in /  34554.1 hPa West 8.0 mph /  12.9 km/h 20.9 mph /  33.6 km/h 69 % 0.0 in /  0 mm
14:12 16.9 °F /  -8.4 °C 11.2 °F /  -11.6 °C 1020.2 in /  34544 hPa WSW 4.8 mph /  7.7 km/h 16.1 mph /  25.9 km/h 69 % 0.0 in /  0 mm
14:17 16.9 °F /  -8.4 °C 11.2 °F /  -11.6 °C 1020.5 in /  34554.1 hPa West 6.4 mph /  10.3 km/h 16.1 mph /  25.9 km/h 69 % 0.0 in /  0 mm
14:27 17.1 °F /  -8.3 °C 11.1 °F /  -11.6 °C 1020.2 in /  34544 hPa SW 8.0 mph /  12.9 km/h 17.7 mph /  28.5 km/h 68 % 0.0 in /  0 mm
14:32 17.1 °F /  -8.3 °C 11.4 °F /  -11.4 °C 1020.2 in /  34544 hPa West 4.8 mph /  7.7 km/h 19.3 mph /  31.1 km/h 69 % 0.0 in /  0 mm
14:42 17.2 °F /  -8.2 °C 11.0 °F /  -11.7 °C 1020.2 in /  34544 hPa WSW 11.3 mph /  18.2 km/h 19.3 mph /  31.1 km/h 67 % 0.0 in /  0 mm
14:47 17.5 °F /  -8.1 °C 11.1 °F /  -11.6 °C 1020.2 in /  34544 hPa West 6.4 mph /  10.3 km/h 14.5 mph /  23.3 km/h 66 % 0.0 in /  0 mm
14:52 17.7 °F /  -7.9 °C 11.0 °F /  -11.7 °C 1020.2 in /  34544 hPa West 4.8 mph /  7.7 km/h 16.1 mph /  25.9 km/h 65 % 0.0 in /  0 mm
14:57 17.7 °F /  -7.9 °C 11.3 °F /  -11.5 °C 1020.2 in /  34544 hPa WSW 12.9 mph /  20.8 km/h 16.1 mph /  25.9 km/h 66 % 0.0 in /  0 mm
15:02 17.9 °F /  -7.8 °C 11.2 °F /  -11.6 °C 1020.2 in /  34544 hPa West 6.4 mph /  10.3 km/h 16.1 mph /  25.9 km/h 65 % 0.0 in /  0 mm
15:12 18.2 °F /  -7.7 °C 10.8 °F /  -11.8 °C 1020.2 in /  34544 hPa WNW 6.4 mph /  10.3 km/h 19.3 mph /  31.1 km/h 62 % 0.0 in /  0 mm
15:17 18.1 °F /  -7.7 °C 10.9 °F /  -11.7 °C 1020.2 in /  34544 hPa WSW 9.7 mph /  15.6 km/h 20.9 mph /  33.6 km/h 63 % 0.0 in /  0 mm
15:22 18.2 °F /  -7.7 °C 10.6 °F /  -11.9 °C 1019.9 in /  34533.8 hPa West 6.4 mph /  10.3 km/h 20.9 mph /  33.6 km/h 61 % 0.0 in /  0 mm
15:27 18.1 °F /  -7.7 °C 10.9 °F /  -11.7 °C 1019.9 in /  34533.8 hPa West 4.8 mph /  7.7 km/h 20.9 mph /  33.6 km/h 63 % 0.0 in /  0 mm
15:32 18.2 °F /  -7.7 °C 10.8 °F /  -11.8 °C 1019.9 in /  34533.8 hPa West 14.5 mph /  23.3 km/h 19.3 mph /  31.1 km/h 62 % 0.0 in /  0 mm
15:42 18.2 °F /  -7.7 °C 10.8 °F /  -11.8 °C 1019.9 in /  34533.8 hPa WSW 6.4 mph /  10.3 km/h 19.3 mph /  31.1 km/h 62 % 0.0 in /  0 mm
15:52 18.3 °F /  -7.6 °C 10.9 °F /  -11.7 °C 1019.9 in /  34533.8 hPa WSW 11.3 mph /  18.2 km/h 17.7 mph /  28.5 km/h 62 % 0.0 in /  0 mm
15:57 18.3 °F /  -7.6 °C 10.9 °F /  -11.7 °C 1019.5 in /  34520.3 hPa SW 14.5 mph /  23.3 km/h 17.7 mph /  28.5 km/h 62 % 0.0 in /  0 mm
16:02 18.3 °F /  -7.6 °C 10.9 °F /  -11.7 °C 1019.5 in /  34520.3 hPa WNW 8.0 mph /  12.9 km/h 17.7 mph /  28.5 km/h 62 % 0.0 in /  0 mm
16:07 18.6 °F /  -7.4 °C 10.9 °F /  -11.7 °C 1019.5 in /  34520.3 hPa West 4.8 mph /  7.7 km/h 17.7 mph /  28.5 km/h 61 % 0.0 in /  0 mm
16:12 18.6 °F /  -7.4 °C 10.9 °F /  -11.7 °C 1019.5 in /  34520.3 hPa NW 3.2 mph /  5.1 km/h 17.7 mph /  28.5 km/h 61 % 0.0 in /  0 mm
16:17 18.4 °F /  -7.6 °C 10.7 °F /  -11.8 °C 1019.5 in /  34520.3 hPa WNW 6.4 mph /  10.3 km/h 14.5 mph /  23.3 km/h 61 % 0.0 in /  0 mm
16:22 18.3 °F /  -7.6 °C 10.4 °F /  -12 °C 1019.5 in /  34520.3 hPa West 6.4 mph /  10.3 km/h 14.5 mph /  23.3 km/h 60 % 0.0 in /  0 mm
16:27 18.3 °F /  -7.6 °C 10.6 °F /  -11.9 °C 1019.5 in /  34520.3 hPa WNW 8.0 mph /  12.9 km/h 14.5 mph /  23.3 km/h 61 % 0.0 in /  0 mm
16:32 18.4 °F /  -7.6 °C 10.7 °F /  -11.8 °C 1019.5 in /  34520.3 hPa WNW 4.8 mph /  7.7 km/h 16.1 mph /  25.9 km/h 61 % 0.0 in /  0 mm
16:37 18.6 °F /  -7.4 °C 10.7 °F /  -11.8 °C 1019.2 in /  34510.1 hPa West 3.2 mph /  5.1 km/h 16.1 mph /  25.9 km/h 60 % 0.0 in /  0 mm
16:42 18.7 °F /  -7.4 °C 10.8 °F /  -11.8 °C 1019.2 in /  34510.1 hPa NW 1.6 mph /  2.6 km/h 17.7 mph /  28.5 km/h 60 % 0.0 in /  0 mm
16:47 18.7 °F /  -7.4 °C 10.3 °F /  -12.1 °C 1019.2 in /  34510.1 hPa WNW 12.9 mph /  20.8 km/h 17.7 mph /  28.5 km/h 58 % 0.0 in /  0 mm
16:52 18.6 °F /  -7.4 °C 10.4 °F /  -12 °C 1019.2 in /  34510.1 hPa WNW 4.8 mph /  7.7 km/h 17.7 mph /  28.5 km/h 59 % 0.0 in /  0 mm
16:57 18.7 °F /  -7.4 °C 10.5 °F /  -11.9 °C 1019.2 in /  34510.1 hPa WNW 8.0 mph /  12.9 km/h 17.7 mph /  28.5 km/h 59 % 0.0 in /  0 mm
17:02 19.1 °F /  -7.2 °C 10.4 °F /  -12 °C 1019.2 in /  34510.1 hPa WSW 9.7 mph /  15.6 km/h 24.1 mph /  38.8 km/h 57 % 0.0 in /  0 mm
17:07 18.9 °F /  -7.3 °C 10.5 °F /  -11.9 °C 1019.2 in /  34510.1 hPa West 8.0 mph /  12.9 km/h 24.1 mph /  38.8 km/h 58 % 0.0 in /  0 mm
17:12 18.9 °F /  -7.3 °C 10.5 °F /  -11.9 °C 1018.8 in /  34496.6 hPa WNW 4.8 mph /  7.7 km/h 16.1 mph /  25.9 km/h 58 % 0.0 in /  0 mm
17:17 19.0 °F /  -7.2 °C 10.5 °F /  -11.9 °C 1018.8 in /  34496.6 hPa SW 3.2 mph /  5.1 km/h 14.5 mph /  23.3 km/h 58 % 0.0 in /  0 mm
17:22 19.1 °F /  -7.2 °C 10.4 °F /  -12 °C 1018.8 in /  34496.6 hPa WSW 6.4 mph /  10.3 km/h 14.5 mph /  23.3 km/h 57 % 0.0 in /  0 mm
17:27 19.1 °F /  -7.2 °C 10.4 °F /  -12 °C 1018.8 in /  34496.6 hPa WNW 8.0 mph /  12.9 km/h 14.5 mph /  23.3 km/h 57 % 0.0 in /  0 mm
17:32 19.2 °F /  -7.1 °C 10.5 °F /  -11.9 °C 1018.8 in /  34496.6 hPa West 4.8 mph /  7.7 km/h 14.5 mph /  23.3 km/h 57 % 0.0 in /  0 mm
17:37 19.3 °F /  -7.1 °C 10.3 °F /  -12.1 °C 1018.8 in /  34496.6 hPa WSW 9.7 mph /  15.6 km/h 16.1 mph /  25.9 km/h 56 % 0.0 in /  0 mm
17:42 19.3 °F /  -7.1 °C 10.3 °F /  -12.1 °C 1018.8 in /  34496.6 hPa WSW 8.0 mph /  12.9 km/h 16.1 mph /  25.9 km/h 56 % 0.0 in /  0 mm
17:47 19.3 °F /  -7.1 °C 10.3 °F /  -12.1 °C 1018.8 in /  34496.6 hPa West 1.6 mph /  2.6 km/h 16.1 mph /  25.9 km/h 56 % 0.0 in /  0 mm
17:52 19.3 °F /  -7.1 °C 10.3 °F /  -12.1 °C 1018.8 in /  34496.6 hPa West 3.2 mph /  5.1 km/h 12.9 mph /  20.8 km/h 56 % 0.0 in /  0 mm
17:57 19.3 °F /  -7.1 °C 10.6 °F /  -11.9 °C 1018.8 in /  34496.6 hPa WNW 11.3 mph /  18.2 km/h 12.9 mph /  20.8 km/h 57 % 0.0 in /  0 mm
18:02 19.2 °F /  -7.1 °C 10.5 °F /  -11.9 °C 1018.8 in /  34496.6 hPa West 6.4 mph /  10.3 km/h 12.9 mph /  20.8 km/h 57 % 0.0 in /  0 mm
18:12 19.4 °F /  -7 °C 10.7 °F /  -11.8 °C 1018.5 in /  34486.4 hPa West 3.2 mph /  5.1 km/h 14.5 mph /  23.3 km/h 57 % 0.0 in /  0 mm
18:17 19.3 °F /  -7.1 °C 10.3 °F /  -12.1 °C 1018.5 in /  34486.4 hPa WNW 8.0 mph /  12.9 km/h 14.5 mph /  23.3 km/h 56 % 0.0 in /  0 mm
18:22 19.3 °F /  -7.1 °C 10.3 °F /  -12.1 °C 1018.5 in /  34486.4 hPa WSW 12.9 mph /  20.8 km/h 14.5 mph /  23.3 km/h 56 % 0.0 in /  0 mm
18:27 19.2 °F /  -7.1 °C 10.5 °F /  -11.9 °C 1018.5 in /  34486.4 hPa WSW 4.8 mph /  7.7 km/h 14.5 mph /  23.3 km/h 57 % 0.0 in /  0 mm
18:32 19.1 °F /  -7.2 °C 10.4 °F /  -12 °C 1018.5 in /  34486.4 hPa West 4.8 mph /  7.7 km/h 14.5 mph /  23.3 km/h 57 % 0.0 in /  0 mm
18:37 19.0 °F /  -7.2 °C 10.3 °F /  -12.1 °C 1018.5 in /  34486.4 hPa WNW 6.4 mph /  10.3 km/h 14.5 mph /  23.3 km/h 57 % 0.0 in /  0 mm
18:42 19.0 °F /  -7.2 °C 10.3 °F /  -12.1 °C 1018.5 in /  34486.4 hPa West 4.8 mph /  7.7 km/h 14.5 mph /  23.3 km/h 57 % 0.0 in /  0 mm
18:47 18.9 °F /  -7.3 °C 10.5 °F /  -11.9 °C 1018.5 in /  34486.4 hPa WNW 4.8 mph /  7.7 km/h 11.3 mph /  18.2 km/h 58 % 0.0 in /  0 mm
18:52 18.9 °F /  -7.3 °C 10.5 °F /  -11.9 °C 1018.5 in /  34486.4 hPa West 3.2 mph /  5.1 km/h 11.3 mph /  18.2 km/h 58 % 0.0 in /  0 mm
18:57 18.9 °F /  -7.3 °C 10.5 °F /  -11.9 °C 1018.5 in /  34486.4 hPa West 4.8 mph /  7.7 km/h 11.3 mph /  18.2 km/h 58 % 0.0 in /  0 mm
19:02 18.8 °F /  -7.3 °C 10.4 °F /  -12 °C 1018.5 in /  34486.4 hPa WSW 4.8 mph /  7.7 km/h 14.5 mph /  23.3 km/h 58 % 0.0 in /  0 mm
19:07 18.8 °F /  -7.3 °C 10.4 °F /  -12 °C 1018.2 in /  34476.3 hPa West 6.4 mph /  10.3 km/h 14.5 mph /  23.3 km/h 58 % 0.0 in /  0 mm
19:12 18.8 °F /  -7.3 °C 10.4 °F /  -12 °C 1018.5 in /  34486.4 hPa WSW 3.2 mph /  5.1 km/h 14.5 mph /  23.3 km/h 58 % 0.0 in /  0 mm
19:17 18.8 °F /  -7.3 °C 10.6 °F /  -11.9 °C 1018.5 in /  34486.4 hPa WSW 4.8 mph /  7.7 km/h 12.9 mph /  20.8 km/h 59 % 0.0 in /  0 mm
19:22 18.7 °F /  -7.4 °C 10.5 °F /  -11.9 °C 1018.5 in /  34486.4 hPa West 6.4 mph /  10.3 km/h 12.9 mph /  20.8 km/h 59 % 0.0 in /  0 mm
19:27 18.7 °F /  -7.4 °C 10.5 °F /  -11.9 °C 1018.5 in /  34486.4 hPa West 4.8 mph /  7.7 km/h 9.7 mph /  15.6 km/h 59 % 0.0 in /  0 mm
19:32 18.6 °F /  -7.4 °C 10.7 °F /  -11.8 °C 1018.5 in /  34486.4 hPa West 3.2 mph /  5.1 km/h 9.7 mph /  15.6 km/h 60 % 0.0 in /  0 mm
19:37 18.6 °F /  -7.4 °C 10.7 °F /  -11.8 °C 1018.5 in /  34486.4 hPa SW 3.2 mph /  5.1 km/h 9.7 mph /  15.6 km/h 60 % 0.0 in /  0 mm
19:42 18.5 °F /  -7.5 °C 10.6 °F /  -11.9 °C 1018.5 in /  34486.4 hPa WSW 3.2 mph /  5.1 km/h 9.7 mph /  15.6 km/h 60 % 0.0 in /  0 mm
19:47 18.5 °F /  -7.5 °C 10.6 °F /  -11.9 °C 1018.5 in /  34486.4 hPa WNW 3.2 mph /  5.1 km/h 8.0 mph /  12.9 km/h 60 % 0.0 in /  0 mm
19:52 18.4 °F /  -7.6 °C 10.7 °F /  -11.8 °C 1018.2 in /  34476.3 hPa West 3.2 mph /  5.1 km/h 8.0 mph /  12.9 km/h 61 % 0.0 in /  0 mm
19:57 18.4 °F /  -7.6 °C 10.7 °F /  -11.8 °C 1018.5 in /  34486.4 hPa West 4.8 mph /  7.7 km/h 8.0 mph /  12.9 km/h 61 % 0.0 in /  0 mm
20:02 18.3 °F /  -7.6 °C 10.6 °F /  -11.9 °C 1018.5 in /  34486.4 hPa WNW 3.2 mph /  5.1 km/h 9.7 mph /  15.6 km/h 61 % 0.0 in /  0 mm
20:12 18.2 °F /  -7.7 °C 10.8 °F /  -11.8 °C 1018.2 in /  34476.3 hPa WSW 4.8 mph /  7.7 km/h 9.7 mph /  15.6 km/h 62 % 0.0 in /  0 mm
20:17 18.1 °F /  -7.7 °C 10.9 °F /  -11.7 °C 1018.2 in /  34476.3 hPa WSW 1.6 mph /  2.6 km/h 6.4 mph /  10.3 km/h 63 % 0.0 in /  0 mm
20:22 18.0 °F /  -7.8 °C 10.9 °F /  -11.7 °C 1018.2 in /  34476.3 hPa WSW 6.4 mph /  10.3 km/h 8.0 mph /  12.9 km/h 63 % 0.0 in /  0 mm
20:27 17.9 °F /  -7.8 °C 10.8 °F /  -11.8 °C 1018.2 in /  34476.3 hPa WSW 4.8 mph /  7.7 km/h 8.0 mph /  12.9 km/h 63 % 0.0 in /  0 mm
20:32 17.8 °F /  -7.9 °C 10.9 °F /  -11.7 °C 1018.2 in /  34476.3 hPa WSW 3.2 mph /  5.1 km/h 8.0 mph /  12.9 km/h 64 % 0.0 in /  0 mm
20:42 17.6 °F /  -8 °C 10.7 °F /  -11.8 °C 1018.5 in /  34486.4 hPa WSW 1.6 mph /  2.6 km/h 8.0 mph /  12.9 km/h 64 % 0.0 in /  0 mm
20:47 17.5 °F /  -8.1 °C 10.8 °F /  -11.8 °C 1018.5 in /  34486.4 hPa WNW 3.2 mph /  5.1 km/h 8.0 mph /  12.9 km/h 65 % 0.0 in /  0 mm
20:52 17.4 °F /  -8.1 °C 10.8 °F /  -11.8 °C 1018.5 in /  34486.4 hPa WSW 1.6 mph /  2.6 km/h 6.4 mph /  10.3 km/h 65 % 0.0 in /  0 mm
20:57 17.4 °F /  -8.1 °C 10.8 °F /  -11.8 °C 1018.5 in /  34486.4 hPa WSW 1.6 mph /  2.6 km/h 6.4 mph /  10.3 km/h 65 % 0.0 in /  0 mm
21:02 17.3 °F /  -8.2 °C 10.7 °F /  -11.8 °C 1018.5 in /  34486.4 hPa West 4.8 mph /  7.7 km/h 6.4 mph /  10.3 km/h 65 % 0.0 in /  0 mm
21:07 17.3 °F /  -8.2 °C 10.9 °F /  -11.7 °C 1018.5 in /  34486.4 hPa West 1.6 mph /  2.6 km/h 6.4 mph /  10.3 km/h 66 % 0.0 in /  0 mm
21:12 17.2 °F /  -8.2 °C 10.8 °F /  -11.8 °C 1018.5 in /  34486.4 hPa WNW 4.8 mph /  7.7 km/h 6.4 mph /  10.3 km/h 66 % 0.0 in /  0 mm
21:17 17.2 °F /  -8.2 °C 10.6 °F /  -11.9 °C 1018.5 in /  34486.4 hPa West 4.8 mph /  7.7 km/h 8.0 mph /  12.9 km/h 65 % 0.0 in /  0 mm
21:22 17.2 °F /  -8.2 °C 10.6 °F /  -11.9 °C 1018.5 in /  34486.4 hPa West 1.6 mph /  2.6 km/h 8.0 mph /  12.9 km/h 65 % 0.0 in /  0 mm
21:27 17.1 °F /  -8.3 °C 10.7 °F /  -11.8 °C 1018.5 in /  34486.4 hPa West 4.8 mph /  7.7 km/h 8.0 mph /  12.9 km/h 66 % 0.0 in /  0 mm
21:32 17.1 °F /  -8.3 °C 10.7 °F /  -11.8 °C 1018.8 in /  34496.6 hPa West 4.8 mph /  7.7 km/h 8.0 mph /  12.9 km/h 66 % 0.0 in /  0 mm
21:37 17.0 °F /  -8.3 °C 10.6 °F /  -11.9 °C 1018.5 in /  34486.4 hPa WSW 4.8 mph /  7.7 km/h 8.0 mph /  12.9 km/h 66 % 0.0 in /  0 mm
21:42 16.9 °F /  -8.4 °C 10.5 °F /  -11.9 °C 1018.5 in /  34486.4 hPa West 4.8 mph /  7.7 km/h 9.7 mph /  15.6 km/h 66 % 0.0 in /  0 mm
21:47 16.9 °F /  -8.4 °C 10.5 °F /  -11.9 °C 1018.5 in /  34486.4 hPa West 4.8 mph /  7.7 km/h 9.7 mph /  15.6 km/h 66 % 0.0 in /  0 mm
21:52 16.8 °F /  -8.4 °C 10.4 °F /  -12 °C 1018.8 in /  34496.6 hPa West 4.8 mph /  7.7 km/h 9.7 mph /  15.6 km/h 66 % 0.0 in /  0 mm
21:57 16.7 °F /  -8.5 °C 10.3 °F /  -12.1 °C 1018.8 in /  34496.6 hPa West 3.2 mph /  5.1 km/h 9.7 mph /  15.6 km/h 66 % 0.0 in /  0 mm
22:02 16.6 °F /  -8.6 °C 10.2 °F /  -12.1 °C 1018.8 in /  34496.6 hPa WNW 3.2 mph /  5.1 km/h 9.7 mph /  15.6 km/h 66 % 0.0 in /  0 mm
22:12 16.4 °F /  -8.7 °C 9.8 °F /  -12.3 °C 1018.8 in /  34496.6 hPa West 1.6 mph /  2.6 km/h 6.4 mph /  10.3 km/h 65 % 0.0 in /  0 mm
22:17 16.4 °F /  -8.7 °C 10.0 °F /  -12.2 °C 1018.8 in /  34496.6 hPa WNW 1.6 mph /  2.6 km/h 4.8 mph /  7.7 km/h 66 % 0.0 in /  0 mm
22:22 16.3 °F /  -8.7 °C 9.9 °F /  -12.3 °C 1018.5 in /  34486.4 hPa Calm   4.8 mph /  7.7 km/h 66 % 0.0 in /  0 mm
22:27 16.3 °F /  -8.7 °C 9.9 °F /  -12.3 °C 1018.5 in /  34486.4 hPa Calm   3.2 mph /  5.1 km/h 66 % 0.0 in /  0 mm
22:32 16.1 °F /  -8.8 °C 9.7 °F /  -12.4 °C 1018.5 in /  34486.4 hPa Calm   1.6 mph /  2.6 km/h 66 % 0.0 in /  0 mm
22:37 16.0 °F /  -8.9 °C 9.7 °F /  -12.4 °C 1018.5 in /  34486.4 hPa Calm   1.6 mph /  2.6 km/h 66 % 0.0 in /  0 mm
22:42 15.8 °F /  -9 °C 9.7 °F /  -12.4 °C 1018.5 in /  34486.4 hPa Calm   1.6 mph /  2.6 km/h 67 % 0.0 in /  0 mm
22:47 15.7 °F /  -9.1 °C 9.8 °F /  -12.3 °C 1018.5 in /  34486.4 hPa Calm   1.6 mph /  2.6 km/h 68 % 0.0 in /  0 mm
22:52 15.6 °F /  -9.1 °C 9.7 °F /  -12.4 °C 1018.2 in /  34476.3 hPa Calm   1.6 mph /  2.6 km/h 68 % 0.0 in /  0 mm
22:57 15.4 °F /  -9.2 °C 9.7 °F /  -12.4 °C 1018.2 in /  34476.3 hPa Calm   1.6 mph /  2.6 km/h 69 % 0.0 in /  0 mm
23:02 15.5 °F /  -9.2 °C 9.8 °F /  -12.3 °C 1018.2 in /  34476.3 hPa SW 1.6 mph /  2.6 km/h 1.6 mph /  2.6 km/h 69 % 0.0 in /  0 mm
23:07 15.5 °F /  -9.2 °C 9.8 °F /  -12.3 °C 1018.2 in /  34476.3 hPa SSW 1.6 mph /  2.6 km/h 3.2 mph /  5.1 km/h 69 % 0.0 in /  0 mm
23:12 15.4 °F /  -9.2 °C 10.0 °F /  -12.2 °C 1018.2 in /  34476.3 hPa SW 3.2 mph /  5.1 km/h 3.2 mph /  5.1 km/h 70 % 0.0 in /  0 mm
23:22 15.4 °F /  -9.2 °C 10.2 °F /  -12.1 °C 1018.2 in /  34476.3 hPa SW 3.2 mph /  5.1 km/h 4.8 mph /  7.7 km/h 71 % 0.0 in /  0 mm
23:27 15.3 °F /  -9.3 °C 10.3 °F /  -12.1 °C 1018.2 in /  34476.3 hPa Calm   4.8 mph /  7.7 km/h 72 % 0.0 in /  0 mm
23:32 15.3 °F /  -9.3 °C 10.3 °F /  -12.1 °C 1018.2 in /  34476.3 hPa Calm   3.2 mph /  5.1 km/h 72 % 0.0 in /  0 mm
23:37 15.4 °F /  -9.2 °C 10.2 °F /  -12.1 °C 1018.2 in /  34476.3 hPa Calm   3.2 mph /  5.1 km/h 71 % 0.0 in /  0 mm
23:42 15.4 °F /  -9.2 °C 10.2 °F /  -12.1 °C 1018.2 in /  34476.3 hPa WSW 1.6 mph /  2.6 km/h 3.2 mph /  5.1 km/h 71 % 0.0 in /  0 mm
23:47 15.5 °F /  -9.2 °C 10.3 °F /  -12.1 °C 1018.2 in /  34476.3 hPa West 1.6 mph /  2.6 km/h 4.8 mph /  7.7 km/h 71 % 0.0 in /  0 mm
23:52 15.5 °F /  -9.2 °C 10.3 °F /  -12.1 °C 1018.2 in /  34476.3 hPa Calm   4.8 mph /  7.7 km/h 71 % 0.0 in /  0 mm
23:57 15.6 °F /  -9.1 °C 10.4 °F /  -12 °C 1018.2 in /  34476.3 hPa Calm   4.8 mph /  7.7 km/h 71 % 0.0 in /  0 mm
Meteo18
Compliments of Weather Underground - 4 mb

Script developed by  Jim McMurry - jmcmurry@mwt.net Adapted for the template by  Wim van der Kuil - Leuven-Template.eu

You find our weather info also at:

European Weather Network

Weather Underground

Equipment we use:

Weather-station
Davis Vue

Weather-program
Meteobridge

Weather-server
Raspberry PI 2 B+

Provider
1 and 1

Davis Vue

Meteobridge

Raspberry PI 2 B+

1 and 1